Aeroporto :
LOGIN :

Iscrizione | Disclaimer

   EN    FR    IT 

 










Sommario :    VFR   VFR Marginale   IFR   IFR Intensivo   IFR Molto Intensivo
Visibilità : 
Base nubi : 
>= 8 km
>= 3000ft
5 / 8 km
1000 / 3000 ft
1500m / 5 km
500 / 1000 ft
800 / 1500m
200 / 500 ft
< 800m
< 200 ft
Simboli :   Temporali  Nebbia  Neve Forte  Precipitazioni Forti  Vento > 20 kt
SIGMETs :   Varie  Temporali  Ghiacco  Turbolenza  Onda orograficha  Ceneri Vulcaniche






- Altitudine del aeroporto : 348 ft
- Codice IATA : LDV


LFRJ - Landivisiau

ULTIMO METAR :
  • 020730Z AUTO 32005KT 9999 FEW027/// ///TCU 04/03 Q0992

METARs OBSOLETI :
  • 020700Z AUTO 29005KT 9999 FEW024/// ///TCU 03/02 Q0991
  • 020630Z AUTO 26006KT 9999 SCT023/// BKN029/// BKN034/// ///TCU 03/02 Q0991
  • 020600Z AUTO 24008KT 9999 RA FEW015/// BKN020/// BKN029/// //////CB 04/03 Q0991
  • 020530Z AUTO 23012KT 9999 -RA FEW011/// BKN025/// BKN037/// ///CB 04/03 Q0990
  • 020500Z AUTO 24010KT 9999 SCT021/// SCT031/// BKN038/// ///CB 04/03 Q0990
  • 020430Z AUTO 22010KT 9999 -DZ FEW011/// BKN030/// BKN038/// ///TCU 04/03 Q0990
  • 012100Z AUTO 24017KT 9999 FEW018/// SCT037/// BKN050/// ///CB 05/02 Q0992
  • 020400Z AUTO 22012KT 9999 SCT022/// BKN029/// BKN046/// ///CB 04/03 Q0990
  • 020330Z AUTO 22010KT 9999 FEW013/// SCT025/// BKN032/// ///CB 04/03 Q0990
  • 020300Z AUTO 26017KT 7000 RA SCT013/// BKN024/// BKN041/// ///CB 04/03 Q0990

Previsioni scadute.



MetMap, La meteo Aeronautica in un colpo d'occhio ! - Copyright ORBIFLY Dicembre 2007 - Disclaimer

ORBIFLY MET'MAP TEAM :

Programmazione e sviluppo : Alexandra Zaïnal
Concezione : Baudouin d'Aumeries
Supporto tecnico e logistico : Manuel Goepfert
Aiuto : Marc-Olivier Méhu
Aiuto per la traduzione : Arnaldo La Scala




FONTI E CREDITI :

   NOAA